Time,TemperatureF,DewpointF,PressureIn,WindDirection,WindDirectionDegrees,WindSpeedMPH,WindSpeedGustMPH,Humidity,HourlyPrecipIn,Conditions,Clouds,dailyrainin,SoftwareType,DateUTC
2013-05-29 00:00:00,50.0,49.0,-100.00,North,-999,-999.0,-999.0,98,-99.99,,,-99.99,,2013-05-28 23:00:00,
2013-05-29 00:41:00,50.0,49.0,-100.00,North,-999,-999.0,-999.0,98,-99.99,,,-99.99,,2013-05-28 23:41:00,
2013-05-29 00:52:00,50.0,49.0,-100.00,North,-999,-999.0,-999.0,98,-99.99,,,-99.99,,2013-05-28 23:52:00,
2013-05-29 01:00:00,51.0,46.0,-100.00,North,-999,-999.0,-999.0,84,-99.99,,,-99.99,,2013-05-29 00:00:00,
2013-05-29 01:41:00,51.0,46.0,-100.00,North,-999,-999.0,-999.0,84,-99.99,,,-99.99,,2013-05-29 00:41:00,
2013-05-29 01:51:00,51.0,46.0,-100.00,North,-999,-999.0,-999.0,84,-99.99,,,-99.99,,2013-05-29 00:51:00,
2013-05-29 02:00:00,50.0,45.0,-100.00,North,-999,-999.0,-999.0,85,-99.99,,,-99.99,,2013-05-29 01:00:00,
2013-05-29 02:41:00,50.0,45.0,-100.00,North,-999,-999.0,-999.0,85,-99.99,,,-99.99,,2013-05-29 01:41:00,
2013-05-29 02:52:00,50.0,45.0,-100.00,North,-999,-999.0,-999.0,85,-99.99,,,-99.99,,2013-05-29 01:52:00,
2013-05-29 03:00:00,50.0,45.0,-100.00,North,-999,-999.0,-999.0,85,-99.99,,,-99.99,,2013-05-29 02:00:00,
2013-05-29 03:41:00,50.0,45.0,-100.00,North,-999,-999.0,-999.0,85,-99.99,,,-99.99,,2013-05-29 02:41:00,
2013-05-29 03:51:00,50.0,45.0,-100.00,North,-999,-999.0,-999.0,85,-99.99,,,-99.99,,2013-05-29 02:51:00,
2013-05-29 04:00:00,50.0,44.0,-100.00,North,-999,-999.0,-999.0,79,-99.99,,,-99.99,,2013-05-29 03:00:00,
2013-05-29 04:43:00,50.0,44.0,-100.00,North,-999,-999.0,-999.0,79,-99.99,,,-99.99,,2013-05-29 03:43:00,
2013-05-29 04:53:00,50.0,44.0,-100.00,North,-999,-999.0,-999.0,79,-99.99,,,-99.99,,2013-05-29 03:53:00,
2013-05-29 05:00:00,50.0,46.0,-100.00,North,-999,-999.0,-999.0,87,-99.99,,,-99.99,,2013-05-29 04:00:00,
2013-05-29 05:42:00,50.0,46.0,-100.00,North,-999,-999.0,-999.0,87,-99.99,,,-99.99,,2013-05-29 04:42:00,
2013-05-29 05:52:00,50.0,46.0,-100.00,North,-999,-999.0,-999.0,87,-99.99,,,-99.99,,2013-05-29 04:52:00,
2013-05-29 06:00:00,50.0,45.0,-100.00,North,-999,-999.0,-999.0,82,-99.99,,,-99.99,,2013-05-29 05:00:00,
2013-05-29 06:41:00,50.0,45.0,-100.00,North,-999,-999.0,-999.0,82,-99.99,,,-99.99,,2013-05-29 05:41:00,
2013-05-29 06:52:00,50.0,45.0,-100.00,North,-999,-999.0,-999.0,82,-99.99,,,-99.99,,2013-05-29 05:52:00,
2013-05-29 07:00:00,50.0,44.0,-100.00,North,-999,-999.0,-999.0,77,-99.99,,,-99.99,,2013-05-29 06:00:00,
2013-05-29 07:31:00,50.0,44.0,-100.00,North,-999,-999.0,-999.0,77,-99.99,,,-99.99,,2013-05-29 06:31:00,
2013-05-29 07:41:00,50.0,44.0,-100.00,North,-999,-999.0,-999.0,77,-99.99,,,-99.99,,2013-05-29 06:41:00,
2013-05-29 07:51:00,50.0,44.0,-100.00,North,-999,-999.0,-999.0,77,-99.99,,,-99.99,,2013-05-29 06:51:00,
2013-05-29 08:00:00,52.0,44.0,-100.00,North,-999,-999.0,-999.0,73,-99.99,,,-99.99,,2013-05-29 07:00:00,
2013-05-29 08:41:00,52.0,44.0,-100.00,North,-999,-999.0,-999.0,73,-99.99,,,-99.99,,2013-05-29 07:41:00,
2013-05-29 08:52:00,52.0,44.0,-100.00,North,-999,-999.0,-999.0,73,-99.99,,,-99.99,,2013-05-29 07:52:00,
2013-05-29 09:00:00,51.0,44.0,-100.00,North,-999,-999.0,-999.0,78,-99.99,,,-99.99,,2013-05-29 08:00:00,
2013-05-29 09:31:00,51.0,44.0,-100.00,North,-999,-999.0,-999.0,78,-99.99,,,-99.99,,2013-05-29 08:31:00,
2013-05-29 09:41:00,51.0,44.0,-100.00,North,-999,-999.0,-999.0,78,-99.99,,,-99.99,,2013-05-29 08:41:00,
2013-05-29 09:51:00,51.0,44.0,-100.00,North,-999,-999.0,-999.0,78,-99.99,,,-99.99,,2013-05-29 08:51:00,
2013-05-29 10:00:00,50.0,47.0,-100.00,North,-999,-999.0,-999.0,89,-99.99,,,-99.99,,2013-05-29 09:00:00,
2013-05-29 10:42:00,50.0,47.0,-100.00,North,-999,-999.0,-999.0,89,-99.99,,,-99.99,,2013-05-29 09:42:00,
2013-05-29 10:52:00,50.0,47.0,-100.00,North,-999,-999.0,-999.0,89,-99.99,,,-99.99,,2013-05-29 09:52:00,
2013-05-29 11:00:00,50.0,48.0,-100.00,North,-999,-999.0,-999.0,91,-99.99,,,-99.99,,2013-05-29 10:00:00,
2013-05-29 11:42:00,50.0,48.0,-100.00,North,-999,-999.0,-999.0,91,-99.99,,,-99.99,,2013-05-29 10:42:00,
2013-05-29 11:52:00,50.0,48.0,-100.00,North,-999,-999.0,-999.0,91,-99.99,,,-99.99,,2013-05-29 10:52:00,
2013-05-29 12:00:00,51.0,49.0,-100.00,North,-999,-999.0,-999.0,91,-99.99,,,-99.99,,2013-05-29 11:00:00,
2013-05-29 12:41:00,51.0,49.0,-100.00,North,-999,-999.0,-999.0,91,-99.99,,,-99.99,,2013-05-29 11:41:00,
2013-05-29 12:51:00,51.0,49.0,-100.00,North,-999,-999.0,-999.0,91,-99.99,,,-99.99,,2013-05-29 11:51:00,
2013-05-29 13:00:00,52.0,49.0,-100.00,North,-999,-999.0,-999.0,89,-99.99,,,-99.99,,2013-05-29 12:00:00,
2013-05-29 13:41:00,52.0,49.0,-100.00,North,-999,-999.0,-999.0,89,-99.99,,,-99.99,,2013-05-29 12:41:00,
2013-05-29 13:51:00,52.0,49.0,-100.00,North,-999,-999.0,-999.0,89,-99.99,,,-99.99,,2013-05-29 12:51:00,
2013-05-29 14:00:00,52.0,49.0,-100.00,North,-999,-999.0,-999.0,89,-99.99,,,-99.99,,2013-05-29 13:00:00,
2013-05-29 14:42:00,52.0,49.0,-100.00,North,-999,-999.0,-999.0,89,-99.99,,,-99.99,,2013-05-29 13:42:00,
2013-05-29 14:52:00,52.0,49.0,-100.00,North,-999,-999.0,-999.0,89,-99.99,,,-99.99,,2013-05-29 13:52:00,
2013-05-29 15:00:00,51.0,48.0,-100.00,North,-999,-999.0,-999.0,89,-99.99,,,-99.99,,2013-05-29 14:00:00,
2013-05-29 15:31:00,51.0,48.0,-100.00,North,-999,-999.0,-999.0,89,-99.99,,,-99.99,,2013-05-29 14:31:00,
2013-05-29 15:41:00,51.0,48.0,-100.00,North,-999,-999.0,-999.0,89,-99.99,,,-99.99,,2013-05-29 14:41:00,
2013-05-29 15:51:00,51.0,48.0,-100.00,North,-999,-999.0,-999.0,89,-99.99,,,-99.99,,2013-05-29 14:51:00,
2013-05-29 16:00:00,53.0,49.0,-100.00,North,-999,-999.0,-999.0,86,-99.99,,,-99.99,,2013-05-29 15:00:00,
2013-05-29 16:42:00,53.0,49.0,-100.00,North,-999,-999.0,-999.0,86,-99.99,,,-99.99,,2013-05-29 15:42:00,
2013-05-29 16:52:00,53.0,49.0,-100.00,North,-999,-999.0,-999.0,86,-99.99,,,-99.99,,2013-05-29 15:52:00,
2013-05-29 17:00:00,59.0,50.0,-100.00,North,-999,-999.0,-999.0,72,-99.99,,,-99.99,,2013-05-29 16:00:00,
2013-05-29 17:42:00,59.0,50.0,-100.00,North,-999,-999.0,-999.0,72,-99.99,,,-99.99,,2013-05-29 16:42:00,
2013-05-29 17:52:00,59.0,50.0,-100.00,North,-999,-999.0,-999.0,72,-99.99,,,-99.99,,2013-05-29 16:52:00,
2013-05-29 18:00:00,65.0,48.0,-100.00,North,-999,-999.0,-999.0,53,-99.99,,,-99.99,,2013-05-29 17:00:00,
2013-05-29 18:42:00,65.0,48.0,-100.00,North,-999,-999.0,-999.0,53,-99.99,,,-99.99,,2013-05-29 17:42:00,
2013-05-29 18:52:00,65.0,48.0,-100.00,North,-999,-999.0,-999.0,53,-99.99,,,-99.99,,2013-05-29 17:52:00,
2013-05-29 19:00:00,66.0,47.0,-100.00,North,-999,-999.0,-999.0,49,-99.99,,,-99.99,,2013-05-29 18:00:00,
2013-05-29 19:41:00,66.0,47.0,-100.00,North,-999,-999.0,-999.0,49,-99.99,,,-99.99,,2013-05-29 18:41:00,
2013-05-29 19:51:00,66.0,47.0,-100.00,North,-999,-999.0,-999.0,49,-99.99,,,-99.99,,2013-05-29 18:51:00,
2013-05-29 20:00:00,65.0,47.0,-100.00,North,-999,-999.0,-999.0,51,-99.99,,,-99.99,,2013-05-29 19:00:00,
2013-05-29 20:44:00,65.0,47.0,-100.00,North,-999,-999.0,-999.0,51,-99.99,,,-99.99,,2013-05-29 19:44:00,
2013-05-29 20:52:00,65.0,47.0,-100.00,North,-999,-999.0,-999.0,51,-99.99,,,-99.99,,2013-05-29 19:52:00,
2013-05-29 21:00:00,64.0,44.0,-100.00,North,-999,-999.0,-999.0,48,-99.99,,,-99.99,,2013-05-29 20:00:00,
2013-05-29 21:41:00,64.0,44.0,-100.00,North,-999,-999.0,-999.0,48,-99.99,,,-99.99,,2013-05-29 20:41:00,
2013-05-29 21:52:00,64.0,44.0,-100.00,North,-999,-999.0,-999.0,48,-99.99,,,-99.99,,2013-05-29 20:52:00,
2013-05-29 22:00:00,61.0,47.0,-100.00,North,-999,-999.0,-999.0,59,-99.99,,,-99.99,,2013-05-29 21:00:00,
2013-05-29 22:43:00,61.0,47.0,-100.00,North,-999,-999.0,-999.0,59,-99.99,,,-99.99,,2013-05-29 21:43:00,
2013-05-29 22:53:00,61.0,47.0,-100.00,North,-999,-999.0,-999.0,59,-99.99,,,-99.99,,2013-05-29 21:53:00,
2013-05-29 23:00:00,55.0,46.0,-100.00,North,-999,-999.0,-999.0,70,-99.99,,,-99.99,,2013-05-29 22:00:00,
2013-05-29 23:42:00,55.0,46.0,-100.00,North,-999,-999.0,-999.0,70,-99.99,,,-99.99,,2013-05-29 22:42:00,
2013-05-29 23:52:00,55.0,46.0,-100.00,North,-999,-999.0,-999.0,70,-99.99,,,-99.99,,2013-05-29 22:52:00,